Latest Weather Observations for Badgerys Creek

IDN60801

Issued at 1:35 pm EST Saturday 20 September 2014 (issued every 30 minutes, with the page automatically refreshed every 10 minutes)

About weather observations | Map of weather stations | Latest weather observations for NSW | Other Formats
Station Details ID: 067108 Name: BADGERYS CREEK AWS Lat: -33.90 Lon: 150.73 Height: 81.2 m
Data from the previous 72 hours. | See also: Recent months at Badgerys Creek
Date/Time
EST
Temp
°C
App
Temp
°C
Dew
Point
Rel
Hum
%
Delta-T
°C
Wind Press
QNH
hPa
Press
MSL
hPa
Rain
since 9 am
mm
Dir
 
Spd
km/h
Gust
km/h
Spd
kts
Gust
kts
20/01:30pm 19.5 18.0 6.9 44 6.4 NNW 4 11 2 6 1023.1 1023.0 0.0
20/01:00pm 18.2 16.4 7.0 48 5.6 SE 6 11 3 6 1023.3 1023.2 0.0
20/12:30pm 19.6 18.5 8.6 49 5.7 E 4 7 2 4 1023.5 1023.4 0.0
20/12:00pm 17.1 14.6 6.6 50 5.2 SSE 9 19 5 10 1023.8 1023.7 0.0
20/11:30am 17.8 15.7 6.7 48 5.5 ESE 7 15 4 8 1024.0 1023.9 0.0
20/11:00am 16.9 14.5 7.0 52 4.9 SSE 9 15 5 8 1024.3 1024.2 0.0
20/10:30am 17.9 16.0 7.6 51 5.2 SSE 7 15 4 8 1024.5 1024.4 0.0
20/10:00am 16.9 14.4 6.7 51 5.0 S 9 17 5 9 1024.7 1024.7 0.0
20/09:30am 15.8 12.7 5.4 50 5.0 S 11 15 6 8 1024.8 1024.8 0.0
20/09:00am 15.2 12.7 4.9 50 4.8 S 7 13 4 7 1024.6 1024.5 0.0
20/08:30am 13.8 11.4 7.1 64 3.3 SW 9 13 5 7 1024.4 1024.3 0.0
20/08:00am 12.0 10.0 6.9 71 2.4 SW 7 11 4 6 1024.1 1024.0 0.0
20/07:30am 9.6 8.0 7.9 89 0.8 SW 6 9 3 5 1023.9 1023.8 0.0
20/07:00am 7.3 5.3 7.2 99 0.0 WSW 7 9 4 5 1023.6 1023.5 0.0
20/06:30am 4.9 2.6 4.9 100 0.0 WSW 6 7 3 4 1023.1 1023.0 0.0
20/06:00am 4.3 1.7 4.3 100 0.0 WSW 7 9 4 5 1022.6 1022.5 0.0
20/05:30am 4.0 1.3 3.9 99 0.0 SW 7 9 4 5 1022.1 1022.0 0.0
20/05:00am 4.5 2.5 4.4 99 0.0 SW 4 6 2 3 1021.6 1021.5 0.0
20/04:30am 4.6 2.2 4.5 99 0.0 SW 6 7 3 4 1021.3 1021.2 0.0
20/04:00am 4.4 2.0 4.3 99 0.0 SW 6 7 3 4 1021.0 1020.9 0.0
20/03:30am 4.9 3.0 4.8 99 0.0 SW 4 4 2 2 1020.9 1020.8 0.0
20/03:00am 5.1 3.2 5.0 99 0.0 SW 4 6 2 3 1021.0 1020.9 0.0
20/02:30am 5.4 3.2 5.3 99 0.0 SW 6 7 3 4 1021.1 1021.0 0.0
20/02:00am 5.7 3.4 5.6 99 0.0 SW 7 7 4 4 1021.4 1021.3 0.0
20/01:30am 5.7 3.5 5.4 98 0.1 WSW 6 7 3 4 1021.7 1021.6 0.0
20/01:00am 6.0 3.8 5.3 95 0.3 WSW 6 6 3 3 1021.9 1021.8 0.0
20/12:30am 6.6 4.9 5.7 94 0.4 WSW 4 6 2 3 1022.0 1021.9 0.0
20/12:00am 6.5 4.3 5.1 91 0.6 WSW 6 6 3 3 1022.0 1021.9 0.0
 
Date/Time
EST
Temp
°C
App
Temp
°C
Dew
Point
Rel
Hum
%
Delta-T
°C
Wind Press
QNH
hPa
Press
MSL
hPa
Rain
since 9 am
mm
Dir
 
Spd
km/h
Gust
km/h
Spd
kts
Gust
kts
19/11:30pm 7.7 5.5 6.0 89 0.8 WSW 7 7 4 4 1022.1 1022.0 0.0
19/11:00pm 8.3 6.2 5.9 85 1.1 WSW 6 7 3 4 1022.2 1022.1 0.0
19/10:30pm 8.8 6.5 5.9 82 1.3 WSW 7 7 4 4 1022.4 1022.3 0.0
19/10:00pm 8.6 6.4 6.1 84 1.1 WSW 7 9 4 5 1022.4 1022.3 0.0
19/09:30pm 8.8 6.6 6.3 84 1.2 WSW 7 9 4 5 1022.3 1022.2 0.0
19/09:00pm 9.1 6.9 6.2 82 1.3 WSW 7 9 4 5 1022.1 1022.0 0.0
19/08:30pm 9.4 7.3 6.5 82 1.4 WSW 7 9 4 5 1021.9 1021.8 0.0
19/08:00pm 10.3 7.7 6.1 75 1.9 WSW 9 9 5 5 1021.7 1021.6 0.0
19/07:30pm 11.0 8.8 6.2 72 2.3 SW 7 9 4 5 1021.3 1021.2 0.0
19/07:00pm 12.1 10.0 5.9 66 2.9 S 6 9 3 5 1020.9 1020.8 0.0
19/06:30pm 12.9 10.3 6.3 64 3.1 SSE 9 11 5 6 1020.5 1020.4 0.0
19/06:00pm 13.9 10.6 6.5 61 3.6 SE 13 19 7 10 1019.9 1019.8 0.0
19/05:30pm 15.2 11.8 5.7 53 4.6 ESE 13 20 7 11 1019.3 1019.2 0.0
19/05:00pm 16.1 11.3 4.8 47 5.3 E 19 26 10 14 1018.7 1018.6 0.0
19/04:30pm 18.5 15.5 1.1 31 7.8 NNE 6 7 3 4 1018.2 1018.1 0.0
19/04:00pm 18.4 15.5 1.4 32 7.6 N 6 9 3 5 1018.0 1017.9 0.0
19/03:30pm 18.7 15.6 1.2 31 7.9 NNE 7 11 4 6 1018.0 1017.9 0.0
19/03:00pm 19.0 15.5 1.1 30 8.0 NE 9 15 5 8 1018.1 1018.0 0.0
19/02:30pm 20.1 17.5 1.0 28 8.6 SSE 4 9 2 5 1018.4 1018.3 0.0
19/02:00pm 18.9 15.0 -1.5 25 8.7 S 9 19 5 10 1018.5 1018.4 0.0
19/01:30pm 20.3 17.5 2.2 30 8.4 ESE 6 9 3 5 1018.9 1018.8 0.0
19/01:00pm 18.5 15.5 -1.9 25 8.6 SW 4 9 2 5 1019.4 1019.3 0.0
19/12:30pm 18.6 15.9 2.4 34 7.5 ESE 6 11 3 6 1019.8 1019.7 0.0
19/12:00pm 17.6 14.9 2.4 36 6.9 S 6 13 3 7 1020.4 1020.3 0.0
19/11:30am 16.7 13.6 1.6 36 6.7 S 7 17 4 9 1020.9 1020.8 0.0
19/11:00am 16.5 13.2 2.5 39 6.3 WSW 9 17 5 9 1021.5 1021.4 0.0
19/10:30am 16.7 14.6 3.7 42 6.0 WSW 4 7 2 4 1021.8 1021.7 0.0
19/10:00am 15.6 13.0 4.3 47 5.3 SSW 7 13 4 7 1022.2 1022.1 0.0
19/09:30am 14.4 11.6 5.0 53 4.4 WSW 9 15 5 8 1022.2 1022.1 0.0
19/09:00am 13.0 10.8 5.4 60 3.5 SW 6 9 3 5 1022.3 1022.2 0.0
19/08:30am 11.5 9.8 6.0 69 2.6 SW 4 7 2 4 1022.4 1022.3 0.0
19/08:00am 9.9 8.8 5.3 73 2.1 CALM 0 0 0 0 1022.5 1022.4 0.0
19/07:30am 7.6 6.6 5.6 87 0.9 CALM 0 0 0 0 1022.2 1022.1 0.0
19/07:00am 5.2 4.1 5.1 99 0.0 CALM 0 0 0 0 1022.2 1022.1 0.0
19/06:30am 3.6 1.4 3.5 99 0.0 WSW 4 6 2 3 1021.9 1021.8 0.0
19/06:00am 3.5 0.9 3.4 99 0.0 WSW 6 7 3 4 1021.7 1021.6 0.0
19/05:30am 3.6 1.4 3.3 98 0.1 WSW 4 6 2 3 1021.5 1021.4 0.0
19/05:00am 3.5 1.3 3.1 97 0.2 WSW 4 4 2 2 1021.3 1021.2 0.0
19/04:30am 4.1 1.3 3.4 95 0.3 SW 7 7 4 4 1021.0 1020.9 0.0
19/04:00am 4.7 2.2 3.7 93 0.4 WSW 6 7 3 4 1020.7 1020.6 0.0
19/03:30am 4.5 1.8 3.5 93 0.4 WSW 7 7 4 4 1020.5 1020.4 0.0
19/03:00am 4.2 1.6 3.0 92 0.5 SW 6 7 3 4 1020.5 1020.4 0.0
19/02:30am 5.1 2.4 3.9 92 0.5 WSW 7 9 4 5 1020.6 1020.5 0.0
19/02:00am 5.7 3.1 3.4 85 1.0 WSW 6 7 3 4 1020.9 1020.8 0.0
19/01:30am 5.8 3.1 3.5 85 1.0 WSW 7 9 4 5 1021.0 1020.9 0.0
19/01:00am 6.0 3.4 3.3 83 1.1 WSW 6 6 3 3 1021.1 1021.0 0.0
19/12:30am 6.5 4.4 3.8 83 1.2 W 4 4 2 2 1021.2 1021.1 0.0
19/12:00am 7.0 5.6 3.8 80 1.4 CALM 0 6 0 3 1021.3 1021.2 0.0
 
Date/Time
EST
Temp
°C
App
Temp
°C
Dew
Point
Rel
Hum
%
Delta-T
°C
Wind Press
QNH
hPa
Press
MSL
hPa
Rain
since 9 am
mm
Dir
 
Spd
km/h
Gust
km/h
Spd
kts
Gust
kts
18/11:30pm 7.1 5.0 3.9 80 1.4 W 4 6 2 3 1021.4 1021.3 0.0
18/11:00pm 8.0 5.2 3.3 72 2.0 W 7 7 4 4 1021.5 1021.4 0.0
18/10:30pm 8.0 5.9 3.7 74 1.9 WSW 4 6 2 3 1021.4 1021.3 0.0
18/10:00pm 8.0 6.0 4.6 79 1.5 W 4 6 2 3 1021.5 1021.4 0.0
18/09:30pm 8.3 6.3 4.3 76 1.8 W 4 6 2 3 1021.5 1021.4 0.0
18/09:00pm 9.6 7.0 3.4 65 2.7 W 6 7 3 4 1021.5 1021.4 0.0
18/08:30pm 11.3 8.7 3.1 57 3.6 W 6 6 3 3 1021.4 1021.3 0.0
18/08:00pm 10.8 8.2 4.3 64 2.9 S 7 11 4 6 1021.3 1021.2 0.0
18/07:30pm 11.6 9.6 4.3 61 3.3 S 4 6 2 3 1020.9 1020.8 0.0
18/07:00pm 11.5 9.4 3.8 59 3.4 S 4 7 2 4 1020.3 1020.2 0.0
18/06:30pm 12.3 10.2 3.8 56 3.8 S 4 6 2 3 1019.9 1019.8 0.0
18/06:00pm 13.1 11.2 2.9 50 4.5 ESE 2 6 1 3 1019.4 1019.3 0.0
18/05:30pm 13.5 10.7 3.3 50 4.6 SE 7 11 4 6 1018.9 1018.8 0.0
18/05:00pm 14.4 10.4 2.9 46 5.1 SE 13 17 7 9 1018.4 1018.3 0.0
18/04:30pm 15.4 11.0 2.9 43 5.7 ESE 15 24 8 13 1017.9 1017.8 0.0
18/04:00pm 16.4 11.7 3.1 41 6.1 ESE 17 24 9 13 1017.1 1017.1 0.0
18/03:30pm 18.3 13.1 2.6 35 7.2 E 19 24 10 13 1016.6 1016.6 0.0
18/03:00pm 18.6 14.0 -0.7 27 8.3 SE 13 20 7 11 1016.2 1016.2 0.0
18/02:30pm 19.2 15.5 -0.2 27 8.5 SSW 9 15 5 8 1016.2 1016.2 0.0
18/02:00pm 18.8 14.6 -0.6 27 8.4 SSW 11 20 6 11 1016.2 1016.2 0.0
18/01:30pm 18.7 15.4 -0.2 28 8.3 S 7 19 4 10 1016.5 1016.5 0.0
18/01:00pm 18.6 14.6 0.2 29 8.1 W 11 17 6 9 1016.7 1016.7 0.0
18/12:30pm 18.0 14.3 -0.3 29 7.9 SE 9 17 5 9 1017.1 1017.1 0.0
18/12:00pm 17.7 13.6 -0.1 30 7.7 SSE 11 24 6 13 1017.6 1017.5 0.0
18/11:30am 16.8 12.9 -1.8 28 7.7 SW 9 17 5 9 1018.1 1018.0 0.0
18/11:00am 16.5 11.8 -1.6 29 7.5 SW 13 24 7 13 1018.3 1018.2 0.0
18/10:30am 16.1 11.4 -1.5 30 7.3 SW 13 22 7 12 1018.4 1018.3 0.0
18/10:00am 16.0 10.4 -0.2 33 6.9 WSW 19 28 10 15 1018.7 1018.6 0.0
18/09:30am 15.1 9.5 -0.2 35 6.5 WSW 19 26 10 14 1018.9 1018.8 0.0
18/09:00am 14.3 8.4 -0.5 36 6.1 WSW 20 28 11 15 1019.0 1018.9 0.0
18/08:30am 13.6 7.8 -0.4 38 5.8 SW 20 28 11 15 1019.0 1018.9 0.0
18/08:00am 13.1 9.7 1.8 46 4.9 WSW 9 19 5 10 1018.7 1018.6 0.0
18/07:30am 12.5 9.5 2.1 49 4.5 S 7 11 4 6 1018.5 1018.4 0.0
18/07:00am 11.7 7.2 2.2 52 4.1 SW 15 22 8 12 1018.2 1018.1 0.0
18/06:30am 8.4 5.6 2.2 65 2.6 SW 6 9 3 5 1017.8 1017.7 0.0
18/06:00am 8.2 5.7 1.6 63 2.7 W 4 7 2 4 1017.1 1017.1 0.0
18/05:30am 8.6 5.8 2.0 63 2.8 WNW 6 9 3 5 1016.8 1016.8 0.0
18/05:00am 7.2 4.9 2.7 73 1.9 WSW 4 7 2 4 1016.6 1016.6 0.0
18/04:30am 7.5 5.1 2.0 68 2.3 WSW 4 6 2 3 1016.4 1016.4 0.0
18/04:00am 8.1 5.8 2.6 68 2.3 WSW 4 6 2 3 1016.0 1016.0 0.0
18/03:30am 9.0 6.2 2.1 62 2.9 SW 6 6 3 3 1015.8 1015.8 0.0
18/03:00am 8.9 6.0 2.7 65 2.6 SW 7 7 4 4 1015.6 1015.6 0.0
18/02:30am 9.0 6.2 2.1 62 2.9 S 6 9 3 5 1015.5 1015.5 0.0
18/02:00am 10.4 7.9 1.8 55 3.6 SSE 4 6 2 3 1015.5 1015.5 0.0
18/01:30am 11.5 8.6 1.7 51 4.2 SSE 6 9 3 5 1015.4 1015.4 0.0
18/01:00am 12.2 9.4 2.1 50 4.4 S 6 7 3 4 1015.4 1015.4 0.0
18/12:30am 12.0 9.0 2.2 51 4.2 SSW 7 11 4 6 1015.5 1015.5 0.0
18/12:00am 12.4 8.7 2.6 51 4.3 SW 11 20 6 11 1015.3 1015.3 0.0
 
Date/Time
EST
Temp
°C
App
Temp
°C
Dew
Point
Rel
Hum
%
Delta-T
°C
Wind Press
QNH
hPa
Press
MSL
hPa
Rain
since 9 am
mm
Dir
 
Spd
km/h
Gust
km/h
Spd
kts
Gust
kts
17/11:30pm 12.4 8.4 2.8 52 4.2 SW 13 19 7 10 1015.2 1015.2 0.0
17/11:00pm 12.0 8.1 3.3 55 3.9 WSW 13 17 7 9 1015.2 1015.2 0.0
17/10:30pm 11.9 9.2 3.7 57 3.7 WSW 7 11 4 6 1015.0 1015.0 0.0
17/10:00pm 13.5 8.4 3.3 50 4.6 WSW 19 26 10 14 1014.8 1014.8 0.0
17/09:30pm 13.3 8.7 3.9 53 4.3 WSW 17 22 9 12 1014.5 1014.5 0.0
17/09:00pm 12.8 9.4 4.0 55 4.0 WSW 11 15 6 8 1014.4 1014.4 0.0
17/08:30pm 14.6 10.8 4.0 49 4.9 W 13 20 7 11 1014.0 1013.9 0.0
17/08:00pm 13.9 10.2 4.2 52 4.5 WNW 13 19 7 10 1013.8 1013.7 0.0
17/07:30pm 14.2 10.8 4.2 51 4.6 WNW 11 19 6 10 1013.7 1013.6 0.0
17/07:00pm 14.1 11.1 4.1 51 4.6 W 9 17 5 9 1013.3 1013.2 0.0
17/06:30pm 15.2 11.0 3.7 46 5.3 W 15 22 8 12 1012.9 1012.8 0.0
17/06:00pm 15.8 11.2 3.6 44 5.6 W 17 24 9 13 1012.5 1012.4 0.0
17/05:30pm 17.0 11.7 3.0 39 6.4 W 20 32 11 17 1012.3 1012.2 0.0
17/05:00pm 18.0 11.9 2.7 36 7.1 W 24 35 13 19 1011.9 1011.8 0.0
17/04:30pm 18.3 11.0 2.2 34 7.4 W 30 43 16 23 1011.5 1011.4 0.0
17/04:00pm 19.4 13.7 2.7 33 7.8 W 22 32 12 17 1011.0 1010.9 0.0
17/03:30pm 19.4 13.2 2.3 32 7.9 W 24 33 13 18 1010.8 1010.7 0.0
17/03:00pm 19.6 12.8 2.9 33 7.8 W 28 35 15 19 1010.7 1010.6 0.0
17/02:49pm 19.7 12.1 2.6 32 8.0 W 32 50 17 27 1010.6 1010.5 0.0
17/02:30pm 20.0 12.4 2.8 32 8.1 W 32 43 17 23 1010.5 1010.4 0.0
17/02:03pm 19.7 11.9 3.0 33 7.8 W 33 52 18 28 1010.5 1010.4 0.0
17/02:00pm 19.7 11.9 3.0 33 7.9 W 33 46 18 25 1010.6 1010.5 0.0

Other Formats:

Comma delimited format used in spreadsheet applications
http://www.bom.gov.au/fwo/IDN60801/IDN60801.94752.axf

JavaScript Object Notation format (JSON) in row-major order
http://www.bom.gov.au/fwo/IDN60801/IDN60801.94752.json